sensor_id;sensor_type;location;lat;lon;timestamp;pressure;altitude;pressure_sealevel;temperature;humidity
54900;BME280;40801;41.924;25.562;2022-09-21T00:01:10;99595.72;;;15.27;50.04
54900;BME280;40801;41.924;25.562;2022-09-21T00:03:36;99587.06;;;15.34;46.83
54900;BME280;40801;41.924;25.562;2022-09-21T00:06:05;99594.81;;;15.23;50.74
54900;BME280;40801;41.924;25.562;2022-09-21T00:08:31;99586.91;;;15.09;51.53
54900;BME280;40801;41.924;25.562;2022-09-21T00:10:56;99583.91;;;15.02;51.96
54900;BME280;40801;41.924;25.562;2022-09-21T00:13:22;99578.78;;;14.80;53.10
54900;BME280;40801;41.924;25.562;2022-09-21T00:15:48;99576.88;;;14.72;52.81
54900;BME280;40801;41.924;25.562;2022-09-21T00:18:13;99573.34;;;14.80;49.61
54900;BME280;40801;41.924;25.562;2022-09-21T00:20:40;99574.28;;;14.84;50.22
54900;BME280;40801;41.924;25.562;2022-09-21T00:23:09;99584.22;;;14.80;50.91
54900;BME280;40801;41.924;25.562;2022-09-21T00:25:34;99584.06;;;14.76;49.91
54900;BME280;40801;41.924;25.562;2022-09-21T00:27:59;99586.00;;;14.76;51.40
54900;BME280;40801;41.924;25.562;2022-09-21T00:30:25;99581.25;;;14.94;48.61
54900;BME280;40801;41.924;25.562;2022-09-21T00:32:51;99580.13;;;14.95;51.80
54900;BME280;40801;41.924;25.562;2022-09-21T00:35:17;99592.31;;;14.88;51.69
54900;BME280;40801;41.924;25.562;2022-09-21T00:37:42;99597.00;;;15.00;50.96
54900;BME280;40801;41.924;25.562;2022-09-21T00:40:08;99591.88;;;15.07;51.04
54900;BME280;40801;41.924;25.562;2022-09-21T00:42:33;99590.44;;;15.10;51.63
54900;BME280;40801;41.924;25.562;2022-09-21T00:44:59;99590.34;;;15.18;50.43
54900;BME280;40801;41.924;25.562;2022-09-21T00:47:57;99582.13;;;15.27;50.68
54900;BME280;40801;41.924;25.562;2022-09-21T00:50:17;99573.31;;;15.30;51.31
54900;BME280;40801;41.924;25.562;2022-09-21T00:52:45;99577.47;;;15.36;50.50
54900;BME280;40801;41.924;25.562;2022-09-21T00:55:12;99576.78;;;15.39;50.68
54900;BME280;40801;41.924;25.562;2022-09-21T00:57:40;99580.69;;;15.30;50.91
54900;BME280;40801;41.924;25.562;2022-09-21T01:00:08;99579.16;;;15.20;51.75
54900;BME280;40801;41.924;25.562;2022-09-21T01:02:34;99574.13;;;15.10;51.81
54900;BME280;40801;41.924;25.562;2022-09-21T01:05:00;99564.28;;;14.97;53.63
54900;BME280;40801;41.924;25.562;2022-09-21T01:07:27;99557.59;;;14.94;52.31
54900;BME280;40801;41.924;25.562;2022-09-21T01:09:54;99565.41;;;14.96;51.06
54900;BME280;40801;41.924;25.562;2022-09-21T01:17:18;99562.28;;;14.85;52.75
54900;BME280;40801;41.924;25.562;2022-09-21T01:22:39;99560.91;;;14.79;53.39
54900;BME280;40801;41.924;25.562;2022-09-21T01:30:16;99558.06;;;14.67;53.69
54900;BME280;40801;41.924;25.562;2022-09-21T01:32:45;99558.72;;;14.64;53.92
54900;BME280;40801;41.924;25.562;2022-09-21T01:35:14;99551.91;;;14.57;54.01
54900;BME280;40801;41.924;25.562;2022-09-21T01:40:20;99556.28;;;14.71;52.82
54900;BME280;40801;41.924;25.562;2022-09-21T01:42:48;99558.34;;;14.74;53.20
54900;BME280;40801;41.924;25.562;2022-09-21T01:45:14;99554.03;;;14.73;52.68
54900;BME280;40801;41.924;25.562;2022-09-21T01:47:41;99554.16;;;14.85;51.70
54900;BME280;40801;41.924;25.562;2022-09-21T01:50:09;99547.13;;;14.84;52.82
54900;BME280;40801;41.924;25.562;2022-09-21T01:52:40;99545.00;;;14.90;52.63
54900;BME280;40801;41.924;25.562;2022-09-21T01:55:08;99544.28;;;15.01;51.57
54900;BME280;40801;41.924;25.562;2022-09-21T01:58:18;99546.63;;;15.11;50.24
54900;BME280;40801;41.924;25.562;2022-09-21T02:00:23;99548.34;;;15.16;49.69
54900;BME280;40801;41.924;25.562;2022-09-21T02:05:18;99547.22;;;15.17;51.60
54900;BME280;40801;41.924;25.562;2022-09-21T02:07:44;99548.34;;;15.16;51.42
54900;BME280;40801;41.924;25.562;2022-09-21T02:10:12;99553.19;;;15.10;53.18
54900;BME280;40801;41.924;25.562;2022-09-21T02:12:41;99555.16;;;15.01;53.78
54900;BME280;40801;41.924;25.562;2022-09-21T02:15:06;99546.06;;;14.97;53.17
54900;BME280;40801;41.924;25.562;2022-09-21T02:17:36;99550.56;;;14.93;51.47
54900;BME280;40801;41.924;25.562;2022-09-21T02:25:36;99550.59;;;14.64;53.49
54900;BME280;40801;41.924;25.562;2022-09-21T02:28:09;99546.28;;;14.63;53.05
54900;BME280;40801;41.924;25.562;2022-09-21T02:30:38;99551.38;;;14.64;52.72
54900;BME280;40801;41.924;25.562;2022-09-21T02:34:08;99553.81;;;14.57;53.22
54900;BME280;40801;41.924;25.562;2022-09-21T02:36:05;99542.16;;;14.56;53.13
54900;BME280;40801;41.924;25.562;2022-09-21T02:38:34;99557.31;;;14.57;52.54
54900;BME280;40801;41.924;25.562;2022-09-21T02:43:35;99558.53;;;14.69;52.79
54900;BME280;40801;41.924;25.562;2022-09-21T02:46:02;99557.28;;;14.66;53.09
54900;BME280;40801;41.924;25.562;2022-09-21T02:50:59;99551.38;;;14.64;52.33
54900;BME280;40801;41.924;25.562;2022-09-21T02:53:28;99543.81;;;14.78;50.69
54900;BME280;40801;41.924;25.562;2022-09-21T02:55:56;99549.50;;;14.85;50.90
54900;BME280;40801;41.924;25.562;2022-09-21T02:58:23;99550.63;;;14.84;51.37
54900;BME280;40801;41.924;25.562;2022-09-21T03:00:50;99542.63;;;14.88;50.46
54900;BME280;40801;41.924;25.562;2022-09-21T03:03:16;99546.59;;;14.91;51.00
54900;BME280;40801;41.924;25.562;2022-09-21T03:05:45;99548.53;;;14.90;51.03
54900;BME280;40801;41.924;25.562;2022-09-21T03:08:12;99548.25;;;14.83;50.61
54900;BME280;40801;41.924;25.562;2022-09-21T03:10:38;99548.78;;;14.76;50.01
54900;BME280;40801;41.924;25.562;2022-09-21T03:13:04;99536.50;;;14.70;50.32
54900;BME280;40801;41.924;25.562;2022-09-21T03:15:30;99536.03;;;14.68;51.04
54900;BME280;40801;41.924;25.562;2022-09-21T03:17:55;99544.81;;;14.65;51.32
54900;BME280;40801;41.924;25.562;2022-09-21T03:20:20;99541.66;;;14.63;51.68
54900;BME280;40801;41.924;25.562;2022-09-21T03:22:46;99542.78;;;14.62;51.92
54900;BME280;40801;41.924;25.562;2022-09-21T03:25:11;99543.75;;;14.57;52.68
54900;BME280;40801;41.924;25.562;2022-09-21T03:27:37;99532.28;;;14.52;53.03
54900;BME280;40801;41.924;25.562;2022-09-21T03:30:02;99533.28;;;14.47;52.09
54900;BME280;40801;41.924;25.562;2022-09-21T03:32:28;99535.66;;;14.49;52.50
54900;BME280;40801;41.924;25.562;2022-09-21T03:34:53;99532.16;;;14.40;51.91
54900;BME280;40801;41.924;25.562;2022-09-21T03:37:18;99530.38;;;14.52;50.96
54900;BME280;40801;41.924;25.562;2022-09-21T03:39:43;99535.28;;;14.59;51.00
54900;BME280;40801;41.924;25.562;2022-09-21T03:42:11;99539.00;;;14.54;51.51
54900;BME280;40801;41.924;25.562;2022-09-21T03:44:38;99543.91;;;14.61;50.01
54900;BME280;40801;41.924;25.562;2022-09-21T03:47:03;99547.53;;;14.65;49.85
54900;BME280;40801;41.924;25.562;2022-09-21T03:49:30;99546.56;;;14.70;49.96
54900;BME280;40801;41.924;25.562;2022-09-21T03:51:56;99552.97;;;14.65;49.98
54900;BME280;40801;41.924;25.562;2022-09-21T03:54:22;99561.72;;;14.71;49.76
54900;BME280;40801;41.924;25.562;2022-09-21T03:56:47;99562.19;;;14.73;49.34
54900;BME280;40801;41.924;25.562;2022-09-21T03:59:12;99568.25;;;14.78;49.45
54900;BME280;40801;41.924;25.562;2022-09-21T04:01:38;99565.53;;;14.78;48.93
54900;BME280;40801;41.924;25.562;2022-09-21T04:04:03;99568.84;;;14.84;48.72
54900;BME280;40801;41.924;25.562;2022-09-21T04:06:28;99570.56;;;14.88;48.76
54900;BME280;40801;41.924;25.562;2022-09-21T04:08:54;99576.28;;;14.96;48.93
54900;BME280;40801;41.924;25.562;2022-09-21T04:11:20;99574.97;;;15.02;47.96
54900;BME280;40801;41.924;25.562;2022-09-21T04:13:50;99574.13;;;15.10;47.79
54900;BME280;40801;41.924;25.562;2022-09-21T04:16:17;99577.78;;;15.14;46.94
54900;BME280;40801;41.924;25.562;2022-09-21T04:18:42;99576.25;;;15.04;49.10
54900;BME280;40801;41.924;25.562;2022-09-21T04:21:07;99576.13;;;14.92;49.85
54900;BME280;40801;41.924;25.562;2022-09-21T04:23:33;99578.19;;;14.95;49.44
54900;BME280;40801;41.924;25.562;2022-09-21T04:25:59;99574.75;;;14.86;50.10
54900;BME280;40801;41.924;25.562;2022-09-21T04:28:24;99579.66;;;14.93;48.19
54900;BME280;40801;41.924;25.562;2022-09-21T04:30:52;99577.25;;;14.91;49.06
54900;BME280;40801;41.924;25.562;2022-09-21T04:33:18;99585.78;;;14.81;49.70
54900;BME280;40801;41.924;25.562;2022-09-21T04:35:44;99588.69;;;14.76;50.17
54900;BME280;40801;41.924;25.562;2022-09-21T04:38:09;99579.25;;;14.73;49.60
54900;BME280;40801;41.924;25.562;2022-09-21T04:40:35;99580.38;;;14.72;50.67
54900;BME280;40801;41.924;25.562;2022-09-21T04:43:00;99593.63;;;14.74;49.77
54900;BME280;40801;41.924;25.562;2022-09-21T04:45:25;99590.13;;;14.73;50.46
54900;BME280;40801;41.924;25.562;2022-09-21T04:47:51;99586.78;;;14.76;49.87
54900;BME280;40801;41.924;25.562;2022-09-21T04:50:16;99587.13;;;14.75;50.20
54900;BME280;40801;41.924;25.562;2022-09-21T04:52:41;99585.28;;;14.87;49.13
54900;BME280;40801;41.924;25.562;2022-09-21T04:55:07;99576.72;;;14.77;49.32
54900;BME280;40801;41.924;25.562;2022-09-21T04:57:32;99579.56;;;14.80;49.31
54900;BME280;40801;41.924;25.562;2022-09-21T04:59:57;99583.63;;;14.95;48.42
54900;BME280;40801;41.924;25.562;2022-09-21T05:02:23;99579.47;;;14.98;48.02
54900;BME280;40801;41.924;25.562;2022-09-21T05:04:48;99580.13;;;14.95;48.68
54900;BME280;40801;41.924;25.562;2022-09-21T05:07:14;99583.63;;;14.95;48.37
54900;BME280;40801;41.924;25.562;2022-09-21T05:09:39;99581.25;;;14.94;48.92
54900;BME280;40801;41.924;25.562;2022-09-21T05:12:23;99582.13;;;15.06;48.59
54900;BME280;40801;41.924;25.562;2022-09-21T05:14:48;99573.19;;;15.06;48.49
54900;BME280;40801;41.924;25.562;2022-09-21T05:17:13;99579.81;;;15.17;48.42
54900;BME280;40801;41.924;25.562;2022-09-21T05:19:39;99576.91;;;15.22;48.59
54900;BME280;40801;41.924;25.562;2022-09-21T05:22:04;99572.88;;;15.07;48.08
54900;BME280;40801;41.924;25.562;2022-09-21T05:24:30;99561.41;;;15.23;47.42
54900;BME280;40801;41.924;25.562;2022-09-21T05:26:55;99558.81;;;15.05;48.34
54900;BME280;40801;41.924;25.562;2022-09-21T05:29:20;99561.34;;;15.10;48.22
54900;BME280;40801;41.924;25.562;2022-09-21T05:31:57;99553.59;;;15.21;47.94
54900;BME280;40801;41.924;25.562;2022-09-21T05:39:27;99556.97;;;15.39;47.57
54900;BME280;40801;41.924;25.562;2022-09-21T05:41:53;99567.19;;;15.42;47.43
54900;BME280;40801;41.924;25.562;2022-09-21T05:44:18;99560.88;;;15.71;46.88
54900;BME280;40801;41.924;25.562;2022-09-21T05:54:43;99572.91;;;15.82;46.36
54900;BME280;40801;41.924;25.562;2022-09-21T05:59:39;99562.91;;;15.95;46.40
54900;BME280;40801;41.924;25.562;2022-09-21T06:04:49;99570.28;;;16.19;45.34
54900;BME280;40801;41.924;25.562;2022-09-21T06:07:15;99569.84;;;16.17;45.88
54900;BME280;40801;41.924;25.562;2022-09-21T06:09:40;99570.09;;;16.24;45.47
54900;BME280;40801;41.924;25.562;2022-09-21T06:12:06;99568.41;;;16.43;45.42
54900;BME280;40801;41.924;25.562;2022-09-21T06:14:32;99575.50;;;16.69;44.99
54900;BME280;40801;41.924;25.562;2022-09-21T06:16:57;99565.38;;;16.94;44.22
54900;BME280;40801;41.924;25.562;2022-09-21T06:19:22;99571.50;;;17.15;43.62
54900;BME280;40801;41.924;25.562;2022-09-21T06:21:48;99566.28;;;17.10;43.67
54900;BME280;40801;41.924;25.562;2022-09-21T06:24:13;99564.75;;;17.25;44.01
54900;BME280;40801;41.924;25.562;2022-09-21T06:26:38;99571.97;;;17.45;43.91
54900;BME280;40801;41.924;25.562;2022-09-21T06:29:04;99583.03;;;17.24;44.48
54900;BME280;40801;41.924;25.562;2022-09-21T06:31:29;99583.53;;;17.14;44.38
54900;BME280;40801;41.924;25.562;2022-09-21T06:33:54;99583.47;;;17.39;44.29
54900;BME280;40801;41.924;25.562;2022-09-21T06:36:20;99581.22;;;17.41;44.71
54900;BME280;40801;41.924;25.562;2022-09-21T06:38:45;99582.84;;;17.57;43.60
54900;BME280;40801;41.924;25.562;2022-09-21T06:41:10;99580.84;;;17.82;43.74
54900;BME280;40801;41.924;25.562;2022-09-21T06:43:36;99590.81;;;17.90;42.74
54900;BME280;40801;41.924;25.562;2022-09-21T06:46:01;99586.25;;;17.67;42.86
54900;BME280;40801;41.924;25.562;2022-09-21T06:48:28;99583.25;;;17.44;43.26
54900;BME280;40801;41.924;25.562;2022-09-21T06:50:57;99581.41;;;17.48;43.16
54900;BME280;40801;41.924;25.562;2022-09-21T06:53:23;99577.09;;;17.34;43.44
54900;BME280;40801;41.924;25.562;2022-09-21T06:55:48;99580.38;;;17.52;43.27
54900;BME280;40801;41.924;25.562;2022-09-21T06:58:14;99579.41;;;17.60;43.04
54900;BME280;40801;41.924;25.562;2022-09-21T07:00:39;99577.38;;;17.70;42.40
54900;BME280;40801;41.924;25.562;2022-09-21T07:03:04;99583.22;;;17.84;42.93
54900;BME280;40801;41.924;25.562;2022-09-21T07:05:31;99587.06;;;18.11;42.26
54900;BME280;40801;41.924;25.562;2022-09-21T07:07:56;99581.72;;;17.86;42.33
54900;BME280;40801;41.924;25.562;2022-09-21T07:10:22;99584.88;;;18.01;42.70
54900;BME280;40801;41.924;25.562;2022-09-21T07:12:48;99586.47;;;17.61;43.00
54900;BME280;40801;41.924;25.562;2022-09-21T07:15:13;99587.50;;;17.69;42.49
54900;BME280;40801;41.924;25.562;2022-09-21T07:17:39;99591.41;;;17.44;42.57
54900;BME280;40801;41.924;25.562;2022-09-21T07:20:05;99596.13;;;17.59;42.37
54900;BME280;40801;41.924;25.562;2022-09-21T07:22:32;99588.75;;;17.72;42.10
54900;BME280;40801;41.924;25.562;2022-09-21T07:24:57;99586.13;;;17.63;42.38
54900;BME280;40801;41.924;25.562;2022-09-21T07:27:26;99588.03;;;17.75;42.10
54900;BME280;40801;41.924;25.562;2022-09-21T07:29:52;99583.13;;;17.80;41.96
54900;BME280;40801;41.924;25.562;2022-09-21T07:32:18;99587.72;;;17.92;42.20
54900;BME280;40801;41.924;25.562;2022-09-21T07:34:43;99593.28;;;18.39;41.62
54900;BME280;40801;41.924;25.562;2022-09-21T07:37:09;99586.34;;;17.98;41.25
54900;BME280;40801;41.924;25.562;2022-09-21T07:39:34;99583.16;;;18.55;40.76
54900;BME280;40801;41.924;25.562;2022-09-21T07:42:00;99583.34;;;18.63;39.77
54900;BME280;40801;41.924;25.562;2022-09-21T07:44:26;99575.03;;;19.26;39.84
54900;BME280;40801;41.924;25.562;2022-09-21T07:46:51;99577.13;;;19.32;39.15
54900;BME280;40801;41.924;25.562;2022-09-21T07:49:16;99578.34;;;19.70;38.75
54900;BME280;40801;41.924;25.562;2022-09-21T07:51:42;99571.09;;;20.23;36.78
54900;BME280;40801;41.924;25.562;2022-09-21T07:54:08;99577.53;;;20.31;36.40
54900;BME280;40801;41.924;25.562;2022-09-21T07:56:35;99579.16;;;20.35;35.75
54900;BME280;40801;41.924;25.562;2022-09-21T07:59:00;99574.09;;;20.57;36.52
54900;BME280;40801;41.924;25.562;2022-09-21T08:01:40;99583.06;;;21.07;35.08
54900;BME280;40801;41.924;25.562;2022-09-21T08:04:07;99577.16;;;21.31;34.52
54900;BME280;40801;41.924;25.562;2022-09-21T08:06:34;99567.22;;;21.83;34.24
54900;BME280;40801;41.924;25.562;2022-09-21T08:09:00;99567.25;;;22.23;32.13
54900;BME280;40801;41.924;25.562;2022-09-21T08:11:26;99573.75;;;22.45;30.61
54900;BME280;40801;41.924;25.562;2022-09-21T08:13:52;99574.38;;;22.28;31.49
54900;BME280;40801;41.924;25.562;2022-09-21T08:16:17;99576.03;;;22.84;31.94
54900;BME280;40801;41.924;25.562;2022-09-21T08:18:43;99563.63;;;23.08;31.63
54900;BME280;40801;41.924;25.562;2022-09-21T08:21:08;99570.63;;;22.98;31.84
54900;BME280;40801;41.924;25.562;2022-09-21T08:23:34;99571.94;;;23.18;31.80
54900;BME280;40801;41.924;25.562;2022-09-21T08:26:04;99576.97;;;23.06;30.99
54900;BME280;40801;41.924;25.562;2022-09-21T08:28:31;99580.41;;;22.44;31.45
54900;BME280;40801;41.924;25.562;2022-09-21T08:30:59;99577.97;;;21.65;31.84
54900;BME280;40801;41.924;25.562;2022-09-21T08:33:25;99582.59;;;21.57;32.85
54900;BME280;40801;41.924;25.562;2022-09-21T08:35:54;99580.22;;;20.99;33.62
54900;BME280;40801;41.924;25.562;2022-09-21T08:38:20;99572.25;;;21.77;32.18
54900;BME280;40801;41.924;25.562;2022-09-21T08:40:46;99580.78;;;21.69;32.40
54900;BME280;40801;41.924;25.562;2022-09-21T08:43:34;99570.53;;;21.99;31.90
54900;BME280;40801;41.924;25.562;2022-09-21T08:45:57;99572.06;;;21.96;32.14
54900;BME280;40801;41.924;25.562;2022-09-21T08:48:24;99569.88;;;23.05;31.31
54900;BME280;40801;41.924;25.562;2022-09-21T08:50:51;99573.09;;;24.15;29.47
54900;BME280;40801;41.924;25.562;2022-09-21T08:53:18;99566.03;;;25.10;27.64
54900;BME280;40801;41.924;25.562;2022-09-21T08:55:46;99560.88;;;26.14;26.75
54900;BME280;40801;41.924;25.562;2022-09-21T08:58:19;99552.91;;;27.16;24.60
54900;BME280;40801;41.924;25.562;2022-09-21T09:00:46;99552.38;;;26.91;24.68
54900;BME280;40801;41.924;25.562;2022-09-21T09:03:17;99544.66;;;27.12;25.03
54900;BME280;40801;41.924;25.562;2022-09-21T09:05:49;99539.22;;;28.24;23.50
54900;BME280;40801;41.924;25.562;2022-09-21T09:11:04;99536.28;;;28.38;23.91
54900;BME280;40801;41.924;25.562;2022-09-21T09:13:39;99539.78;;;28.42;23.81
54900;BME280;40801;41.924;25.562;2022-09-21T09:18:48;99526.53;;;28.26;22.81
54900;BME280;40801;41.924;25.562;2022-09-21T09:21:17;99531.22;;;27.75;23.10
54900;BME280;40801;41.924;25.562;2022-09-21T09:23:47;99516.16;;;28.03;23.07
54900;BME280;40801;41.924;25.562;2022-09-21T09:29:02;99511.38;;;28.78;22.69
54900;BME280;40801;41.924;25.562;2022-09-21T09:31:32;99513.03;;;28.98;22.33
54900;BME280;40801;41.924;25.562;2022-09-21T09:34:08;99511.50;;;29.14;21.83
54900;BME280;40801;41.924;25.562;2022-09-21T09:36:35;99505.22;;;28.47;22.54
54900;BME280;40801;41.924;25.562;2022-09-21T09:39:09;99499.78;;;27.59;22.62
54900;BME280;40801;41.924;25.562;2022-09-21T09:44:05;99501.28;;;27.33;23.14
54900;BME280;40801;41.924;25.562;2022-09-21T09:46:41;99500.88;;;27.00;23.62
54900;BME280;40801;41.924;25.562;2022-09-21T09:51:52;99508.53;;;26.44;24.42
54900;BME280;40801;41.924;25.562;2022-09-21T09:54:17;99509.81;;;26.33;24.37
54900;BME280;40801;41.924;25.562;2022-09-21T09:56:45;99497.75;;;26.09;24.19
54900;BME280;40801;41.924;25.562;2022-09-21T09:59:20;99500.75;;;25.70;24.75
54900;BME280;40801;41.924;25.562;2022-09-21T10:01:58;99513.19;;;25.22;25.56
54900;BME280;40801;41.924;25.562;2022-09-21T10:04:23;99507.00;;;24.47;26.21
54900;BME280;40801;41.924;25.562;2022-09-21T10:06:49;99511.28;;;24.91;26.08
54900;BME280;40801;41.924;25.562;2022-09-21T10:11:49;99513.66;;;24.10;27.93
54900;BME280;40801;41.924;25.562;2022-09-21T10:14:17;99501.47;;;24.08;27.45
54900;BME280;40801;41.924;25.562;2022-09-21T10:16:43;99500.25;;;23.98;27.04
54900;BME280;40801;41.924;25.562;2022-09-21T10:19:16;99510.09;;;23.85;26.96
54900;BME280;40801;41.924;25.562;2022-09-21T10:21:43;99496.75;;;24.12;26.98
54900;BME280;40801;41.924;25.562;2022-09-21T10:26:48;99496.00;;;24.29;26.56
54900;BME280;40801;41.924;25.562;2022-09-21T10:34:33;99495.13;;;23.93;26.88
54900;BME280;40801;41.924;25.562;2022-09-21T10:36:59;99486.88;;;23.72;27.48
54900;BME280;40801;41.924;25.562;2022-09-21T10:39:30;99486.88;;;23.93;26.96
54900;BME280;40801;41.924;25.562;2022-09-21T10:41:57;99495.94;;;23.94;27.06
54900;BME280;40801;41.924;25.562;2022-09-21T10:44:25;99489.63;;;23.93;27.37
54900;BME280;40801;41.924;25.562;2022-09-21T10:46:51;99484.94;;;24.12;27.64
54900;BME280;40801;41.924;25.562;2022-09-21T10:49:27;99480.25;;;24.30;27.61
54900;BME280;40801;41.924;25.562;2022-09-21T10:51:53;99480.19;;;24.23;26.91
54900;BME280;40801;41.924;25.562;2022-09-21T10:54:22;99480.25;;;24.33;26.79
54900;BME280;40801;41.924;25.562;2022-09-21T10:56:52;99466.44;;;24.48;26.29
54900;BME280;40801;41.924;25.562;2022-09-21T11:01:44;99461.72;;;24.37;27.06
54900;BME280;40801;41.924;25.562;2022-09-21T11:06:46;99454.25;;;24.42;26.34
54900;BME280;40801;41.924;25.562;2022-09-21T11:11:48;99440.47;;;24.31;25.93
54900;BME280;40801;41.924;25.562;2022-09-21T11:16:45;99443.88;;;24.92;25.69
54900;BME280;40801;41.924;25.562;2022-09-21T11:19:24;99437.84;;;25.29;24.70
54900;BME280;40801;41.924;25.562;2022-09-21T11:30:05;99427.38;;;26.17;24.67
54900;BME280;40801;41.924;25.562;2022-09-21T11:47:57;99420.09;;;27.93;21.96
54900;BME280;40801;41.924;25.562;2022-09-21T11:50:28;99406.41;;;27.83;20.89
54900;BME280;40801;41.924;25.562;2022-09-21T11:55:30;99404.44;;;28.06;21.00
54900;BME280;40801;41.924;25.562;2022-09-21T11:58:07;99403.13;;;27.64;20.93
54900;BME280;40801;41.924;25.562;2022-09-21T12:06:05;99388.63;;;29.46;19.34
54900;BME280;40801;41.924;25.562;2022-09-21T12:11:25;99377.44;;;29.49;19.38
54900;BME280;40801;41.924;25.562;2022-09-21T12:14:38;99374.53;;;29.37;19.56
54900;BME280;40801;41.924;25.562;2022-09-21T12:22:05;99361.06;;;30.62;17.70
54900;BME280;40801;41.924;25.562;2022-09-21T12:24:38;99369.28;;;30.07;18.17
54900;BME280;40801;41.924;25.562;2022-09-21T12:27:10;99371.25;;;30.94;17.71
54900;BME280;40801;41.924;25.562;2022-09-21T12:29:45;99367.31;;;31.33;18.12
54900;BME280;40801;41.924;25.562;2022-09-21T12:34:43;99356.97;;;31.33;17.07
54900;BME280;40801;41.924;25.562;2022-09-21T12:37:14;99362.25;;;31.02;17.53
54900;BME280;40801;41.924;25.562;2022-09-21T12:39:50;99365.22;;;30.41;17.20
54900;BME280;40801;41.924;25.562;2022-09-21T12:44:48;99356.63;;;31.31;17.02
54900;BME280;40801;41.924;25.562;2022-09-21T12:48:03;99346.06;;;30.72;17.02
54900;BME280;40801;41.924;25.562;2022-09-21T12:50:04;99348.69;;;30.34;17.80
54900;BME280;40801;41.924;25.562;2022-09-21T12:52:30;99342.00;;;29.53;17.96
54900;BME280;40801;41.924;25.562;2022-09-21T13:00:12;99348.31;;;27.25;20.07
54900;BME280;40801;41.924;25.562;2022-09-21T13:02:47;99341.13;;;26.36;21.77
54900;BME280;40801;41.924;25.562;2022-09-21T13:07:59;99363.44;;;25.67;24.89
54900;BME280;40801;41.924;25.562;2022-09-21T13:12:57;99364.75;;;24.67;27.27
54900;BME280;40801;41.924;25.562;2022-09-21T13:20:24;99374.69;;;24.22;27.92
54900;BME280;40801;41.924;25.562;2022-09-21T13:22:50;99371.56;;;23.95;28.17
54900;BME280;40801;41.924;25.562;2022-09-21T13:25:22;99379.84;;;23.88;28.84
54900;BME280;40801;41.924;25.562;2022-09-21T13:28:15;99383.69;;;23.30;28.96
54900;BME280;40801;41.924;25.562;2022-09-21T13:33:28;99390.28;;;22.94;30.93
54900;BME280;40801;41.924;25.562;2022-09-21T13:41:01;99402.59;;;21.53;32.74
54900;BME280;40801;41.924;25.562;2022-09-21T13:46:10;99409.13;;;21.78;33.95
54900;BME280;40801;41.924;25.562;2022-09-21T13:48:55;99425.56;;;21.38;33.38
54900;BME280;40801;41.924;25.562;2022-09-21T13:51:20;99424.25;;;21.24;33.61
54900;BME280;40801;41.924;25.562;2022-09-21T13:53:47;99420.09;;;21.08;33.89
54900;BME280;40801;41.924;25.562;2022-09-21T13:56:18;99427.97;;;20.79;34.68
54900;BME280;40801;41.924;25.562;2022-09-21T13:58:46;99432.25;;;20.77;35.23
54900;BME280;40801;41.924;25.562;2022-09-21T14:01:19;99441.03;;;20.59;36.39
54900;BME280;40801;41.924;25.562;2022-09-21T14:03:55;99440.22;;;20.32;38.99
54900;BME280;40801;41.924;25.562;2022-09-21T14:06:25;99451.31;;;19.94;40.79
54900;BME280;40801;41.924;25.562;2022-09-21T14:08:56;99428.44;;;20.05;44.60
54900;BME280;40801;41.924;25.562;2022-09-21T14:11:34;99419.22;;;19.68;45.62
54900;BME280;40801;41.924;25.562;2022-09-21T14:19:57;99414.81;;;19.21;46.64
54900;BME280;40801;41.924;25.562;2022-09-21T14:24:46;99422.31;;;19.47;45.12
54900;BME280;40801;41.924;25.562;2022-09-21T14:29:52;99426.59;;;19.25;45.92
54900;BME280;40801;41.924;25.562;2022-09-21T14:32:21;99427.81;;;19.28;43.34
54900;BME280;40801;41.924;25.562;2022-09-21T14:34:52;99427.84;;;19.08;44.00
54900;BME280;40801;41.924;25.562;2022-09-21T14:39:44;99435.09;;;19.39;44.28
54900;BME280;40801;41.924;25.562;2022-09-21T14:42:17;99432.50;;;19.27;44.16
54900;BME280;40801;41.924;25.562;2022-09-21T14:44:44;99428.53;;;19.25;45.65
54900;BME280;40801;41.924;25.562;2022-09-21T14:50:01;99438.13;;;18.96;43.80
54900;BME280;40801;41.924;25.562;2022-09-21T15:00:37;99451.13;;;18.83;43.41
54900;BME280;40801;41.924;25.562;2022-09-21T15:05:43;99462.84;;;19.03;42.59
54900;BME280;40801;41.924;25.562;2022-09-21T15:11:21;99486.88;;;18.94;44.39
54900;BME280;40801;41.924;25.562;2022-09-21T15:21:47;99526.97;;;18.23;47.80
54900;BME280;40801;41.924;25.562;2022-09-21T15:26:41;99529.63;;;16.95;54.89
54900;BME280;40801;41.924;25.562;2022-09-21T15:29:11;99532.47;;;16.75;54.15
54900;BME280;40801;41.924;25.562;2022-09-21T15:31:43;99520.31;;;16.48;55.31
54900;BME280;40801;41.924;25.562;2022-09-21T15:34:08;99516.72;;;16.56;55.05
54900;BME280;40801;41.924;25.562;2022-09-21T15:36:38;99507.97;;;16.62;52.87
54900;BME280;40801;41.924;25.562;2022-09-21T15:39:04;99498.09;;;16.70;53.42
54900;BME280;40801;41.924;25.562;2022-09-21T15:44:06;99517.22;;;16.13;59.34
54900;BME280;40801;41.924;25.562;2022-09-21T15:46:35;99516.66;;;16.07;58.49
54900;BME280;40801;41.924;25.562;2022-09-21T15:49:01;99505.22;;;16.14;57.94
54900;BME280;40801;41.924;25.562;2022-09-21T15:51:30;99508.66;;;16.23;56.23
54900;BME280;40801;41.924;25.562;2022-09-21T15:54:07;99509.63;;;16.18;56.79
54900;BME280;40801;41.924;25.562;2022-09-21T15:56:33;99503.44;;;16.42;55.52
54900;BME280;40801;41.924;25.562;2022-09-21T15:59:04;99500.00;;;16.45;53.96
54900;BME280;40801;41.924;25.562;2022-09-21T16:01:40;99508.66;;;16.35;61.37
54900;BME280;40801;41.924;25.562;2022-09-21T16:04:07;99512.94;;;16.11;61.69
54900;BME280;40801;41.924;25.562;2022-09-21T16:09:25;99511.56;;;16.05;64.41
54900;BME280;40801;41.924;25.562;2022-09-21T16:11:45;99519.72;;;16.05;64.96